createdAt,value
2023-12-23T00:03:44.367Z,8.88
2023-12-23T00:09:06.213Z,8.85
2023-12-23T00:14:28.152Z,8.81
2023-12-23T00:19:50.298Z,8.89
2023-12-23T00:25:12.258Z,8.87
2023-12-23T00:30:34.194Z,8.88
2023-12-23T00:35:56.171Z,8.81
2023-12-23T00:41:18.133Z,8.79
2023-12-23T00:46:40.146Z,8.57
2023-12-23T00:52:02.040Z,8.51
2023-12-23T00:57:24.190Z,8.50
2023-12-23T01:02:46.110Z,8.46
2023-12-23T01:08:07.982Z,8.56
2023-12-23T01:13:29.927Z,8.44
2023-12-23T01:18:51.863Z,8.54
2023-12-23T01:24:13.700Z,8.56
2023-12-23T01:29:35.542Z,8.56
2023-12-23T01:34:57.526Z,8.52
2023-12-23T01:40:19.792Z,8.45
2023-12-23T01:45:41.668Z,8.43
2023-12-23T01:51:04.245Z,8.29
2023-12-23T01:56:26.140Z,8.30
2023-12-23T02:01:50.323Z,8.42
2023-12-23T02:07:12.446Z,8.49
2023-12-23T02:12:40.655Z,8.50
2023-12-23T02:18:03.049Z,8.49
2023-12-23T02:23:25.153Z,8.47
2023-12-23T02:28:52.640Z,8.49
2023-12-23T02:34:15.559Z,8.42
2023-12-23T02:39:37.401Z,8.39
2023-12-23T02:44:59.307Z,8.31
2023-12-23T02:50:21.178Z,8.35
2023-12-23T02:55:43.099Z,8.43
2023-12-23T03:01:08.741Z,8.39
2023-12-23T03:06:30.652Z,8.43
2023-12-23T03:11:52.549Z,8.51
2023-12-23T03:17:14.437Z,8.45
2023-12-23T03:22:36.295Z,8.51
2023-12-23T03:28:01.188Z,8.39
2023-12-23T03:33:23.309Z,8.46
2023-12-23T03:38:45.233Z,8.46
2023-12-23T03:44:07.657Z,8.44
2023-12-23T03:49:29.551Z,8.44
2023-12-23T03:54:51.327Z,8.46
2023-12-23T04:00:13.700Z,8.48
2023-12-23T04:05:35.450Z,8.46
2023-12-23T04:10:57.260Z,8.43
2023-12-23T04:16:19.197Z,8.41
2023-12-23T04:21:41.205Z,8.29
2023-12-23T04:27:03.137Z,8.29
2023-12-23T04:32:25.307Z,8.41
2023-12-23T04:37:47.275Z,8.47
2023-12-23T04:43:09.106Z,8.37
2023-12-23T04:48:31.012Z,8.40
2023-12-23T04:53:52.843Z,8.42
2023-12-23T04:59:14.869Z,8.50
2023-12-23T05:04:36.787Z,8.55
2023-12-23T05:09:58.719Z,8.61
2023-12-23T05:15:20.622Z,8.56
2023-12-23T05:20:42.379Z,8.60
2023-12-23T05:26:04.298Z,8.55
2023-12-23T05:31:26.311Z,8.54
2023-12-23T05:36:48.093Z,8.54
2023-12-23T05:42:09.830Z,8.50
2023-12-23T05:47:31.948Z,8.49
2023-12-23T05:52:54.166Z,8.56
2023-12-23T05:58:16.262Z,8.57
2023-12-23T06:03:38.260Z,8.39
2023-12-23T06:09:00.157Z,8.31
2023-12-23T06:14:21.984Z,8.26
2023-12-23T06:19:43.826Z,8.19
2023-12-23T06:25:06.383Z,8.10
2023-12-23T06:30:28.251Z,8.14
2023-12-23T06:35:50.139Z,8.14
2023-12-23T06:41:13.315Z,8.03
2023-12-23T06:46:35.237Z,8.23
2023-12-23T06:51:57.183Z,8.14
2023-12-23T06:57:20.006Z,8.15
2023-12-23T07:02:41.902Z,8.08
2023-12-23T07:08:04.238Z,8.13
2023-12-23T07:13:26.286Z,8.18
2023-12-23T07:18:48.250Z,8.09
2023-12-23T07:24:10.140Z,8.08
2023-12-23T07:29:31.939Z,8.04
2023-12-23T07:34:53.924Z,8.03
2023-12-23T07:40:16.011Z,8.09
2023-12-23T07:45:37.894Z,8.19
2023-12-23T07:50:59.879Z,8.32
2023-12-23T07:56:22.092Z,8.27
2023-12-23T08:01:47.585Z,8.41
2023-12-23T08:07:09.397Z,8.33
2023-12-23T08:12:31.162Z,8.33
2023-12-23T08:17:53.007Z,8.30
2023-12-23T08:23:14.983Z,8.36
2023-12-23T08:28:37.862Z,8.32
2023-12-23T08:34:00.584Z,8.50
2023-12-23T08:39:23.152Z,8.60
2023-12-23T08:44:44.942Z,8.49
2023-12-23T08:50:07.230Z,8.60
2023-12-23T08:55:29.469Z,8.67
2023-12-23T09:00:51.447Z,8.65
2023-12-23T09:06:13.925Z,8.73
2023-12-23T09:11:42.636Z,8.85
2023-12-23T09:17:04.950Z,8.89
2023-12-23T09:22:26.740Z,8.91
2023-12-23T09:27:48.918Z,8.93
2023-12-23T09:33:11.987Z,8.95
2023-12-23T09:38:34.179Z,8.97
2023-12-23T09:43:56.034Z,8.98
2023-12-23T09:49:18.095Z,8.99
2023-12-23T09:54:45.397Z,9.10
2023-12-23T10:00:08.772Z,9.05
2023-12-23T10:05:30.832Z,9.17
2023-12-23T10:10:53.418Z,9.20
2023-12-23T10:16:16.003Z,9.15
2023-12-23T10:21:37.896Z,9.25
2023-12-23T10:27:00.033Z,9.11
2023-12-23T10:32:29.198Z,9.12
2023-12-23T10:37:57.511Z,9.04
2023-12-23T10:43:20.741Z,9.13
2023-12-23T10:48:43.867Z,9.18
2023-12-23T10:54:08.752Z,9.25
2023-12-23T10:59:30.689Z,9.25
2023-12-23T11:04:55.402Z,9.23
2023-12-23T11:10:18.295Z,9.28
2023-12-23T11:15:41.290Z,9.31
2023-12-23T11:21:03.229Z,9.28
2023-12-23T11:26:40.975Z,9.40
2023-12-23T11:32:14.772Z,9.48
2023-12-23T11:37:53.796Z,9.46
2023-12-23T11:43:17.006Z,9.56
2023-12-23T11:48:39.006Z,9.54
2023-12-23T11:54:00.996Z,9.56
2023-12-23T11:59:23.556Z,9.57
2023-12-23T12:04:47.647Z,9.35
2023-12-23T12:10:09.983Z,9.40
2023-12-23T12:15:31.862Z,9.31
2023-12-23T12:20:53.774Z,9.56
2023-12-23T12:26:16.851Z,9.37
2023-12-23T12:31:38.684Z,9.33
2023-12-23T12:37:00.621Z,9.42
2023-12-23T12:42:25.861Z,9.35
2023-12-23T12:47:49.764Z,9.34
2023-12-23T12:53:11.816Z,9.43
2023-12-23T12:58:33.833Z,9.52
2023-12-23T13:03:55.769Z,9.47
2023-12-23T13:09:18.188Z,9.55
2023-12-23T13:14:39.964Z,9.37
2023-12-23T13:20:01.922Z,9.39
2023-12-23T13:25:24.138Z,9.59
2023-12-23T13:30:46.278Z,9.66
2023-12-23T13:36:09.664Z,9.50
2023-12-23T13:41:31.653Z,9.46
2023-12-23T13:52:17.497Z,9.42
2023-12-23T13:57:39.416Z,9.42
2023-12-23T14:03:01.155Z,9.36
2023-12-23T14:08:23.246Z,9.35
2023-12-23T14:13:45.677Z,9.37
2023-12-23T14:19:07.598Z,9.29
2023-12-23T14:24:31.462Z,9.29
2023-12-23T14:29:53.262Z,9.23
2023-12-23T14:35:15.194Z,9.17
2023-12-23T14:40:36.988Z,9.03
2023-12-23T14:45:58.824Z,9.04
2023-12-23T14:51:24.196Z,9.02
2023-12-23T14:56:46.188Z,9.08
2023-12-23T15:02:08.159Z,8.98
2023-12-23T15:07:30.257Z,8.87
2023-12-23T15:12:52.571Z,8.97
2023-12-23T15:18:14.805Z,8.92
2023-12-23T15:23:36.773Z,8.88
2023-12-23T15:28:58.650Z,8.88
2023-12-23T15:34:20.640Z,8.91
2023-12-23T15:39:42.534Z,8.91
2023-12-23T15:45:04.868Z,8.84
2023-12-23T15:50:26.769Z,8.80
2023-12-23T15:55:48.737Z,8.88
2023-12-23T16:01:12.557Z,8.87
2023-12-23T16:06:34.440Z,8.81
2023-12-23T16:11:56.519Z,8.95
2023-12-23T16:17:20.112Z,8.97
2023-12-23T16:22:42.033Z,9.03
2023-12-23T16:28:04.101Z,9.08
2023-12-23T16:33:26.142Z,9.06
2023-12-23T16:38:48.099Z,9.09
2023-12-23T16:44:09.985Z,9.14
2023-12-23T16:49:41.227Z,9.05
2023-12-23T16:55:04.446Z,9.23
2023-12-23T17:00:26.284Z,9.29
2023-12-23T17:05:48.276Z,9.19
2023-12-23T17:11:10.383Z,9.26
2023-12-23T17:16:32.219Z,9.30
2023-12-23T17:21:54.253Z,9.26
2023-12-23T17:27:16.081Z,9.34
2023-12-23T17:32:38.096Z,9.22
2023-12-23T17:38:00.825Z,9.06
2023-12-23T17:43:22.750Z,9.04
2023-12-23T17:48:44.933Z,9.05
2023-12-23T17:54:06.969Z,9.02
2023-12-23T17:59:29.053Z,8.97
2023-12-23T18:04:50.969Z,8.95
2023-12-23T18:10:12.999Z,8.93
2023-12-23T18:15:36.735Z,8.90
2023-12-23T18:20:58.581Z,8.80
2023-12-23T18:26:20.417Z,8.77
2023-12-23T18:31:43.129Z,8.69
2023-12-23T18:37:05.229Z,8.73
2023-12-23T18:42:27.132Z,8.80
2023-12-23T18:47:49.293Z,8.73
2023-12-23T18:53:11.275Z,8.78
2023-12-23T18:58:33.163Z,8.69
2023-12-23T19:03:55.098Z,8.65
2023-12-23T19:09:16.935Z,8.60
2023-12-23T19:14:38.838Z,8.70
2023-12-23T19:20:04.236Z,8.73
2023-12-23T19:25:26.184Z,8.63
2023-12-23T19:30:48.045Z,8.61
2023-12-23T19:36:12.971Z,8.69
2023-12-23T19:41:34.820Z,8.62
2023-12-23T19:46:56.910Z,8.69
2023-12-23T19:52:18.812Z,8.69
2023-12-23T19:57:40.675Z,8.70
2023-12-23T20:03:02.778Z,8.60
2023-12-23T20:08:24.946Z,8.59
2023-12-23T20:13:47.010Z,8.53
2023-12-23T20:19:09.325Z,8.52
2023-12-23T20:24:31.512Z,8.49
2023-12-23T20:29:53.320Z,8.59
2023-12-23T20:35:15.743Z,8.65
2023-12-23T20:40:37.597Z,8.65
2023-12-23T20:45:59.461Z,8.67
2023-12-23T20:51:21.572Z,8.47
2023-12-23T20:56:43.485Z,8.54
2023-12-23T21:02:08.347Z,8.50
2023-12-23T21:07:30.340Z,8.50
2023-12-23T21:12:52.315Z,8.35
2023-12-23T21:18:14.430Z,8.61
2023-12-23T21:23:36.827Z,8.52
2023-12-23T21:28:58.835Z,8.62
2023-12-23T21:34:20.620Z,8.58
2023-12-23T21:39:42.515Z,8.50
2023-12-23T21:45:04.682Z,8.60
2023-12-23T21:50:26.617Z,8.60
2023-12-23T21:55:48.409Z,8.71
2023-12-23T22:01:12.902Z,8.73
2023-12-23T22:06:34.779Z,8.71
2023-12-23T22:11:56.601Z,8.76
2023-12-23T22:17:18.525Z,8.76
2023-12-23T22:22:40.372Z,8.69
2023-12-23T22:28:02.278Z,8.73
2023-12-23T22:33:24.237Z,8.79
2023-12-23T22:38:50.200Z,8.83
2023-12-23T22:44:12.040Z,8.88
2023-12-23T22:49:33.956Z,8.83
2023-12-23T22:54:55.940Z,8.84
2023-12-23T23:00:19.700Z,8.78
2023-12-23T23:05:41.667Z,8.71
2023-12-23T23:11:03.688Z,8.81
2023-12-23T23:16:25.642Z,8.71
2023-12-23T23:21:47.436Z,8.71
2023-12-23T23:27:09.287Z,8.76
2023-12-23T23:32:31.224Z,8.84
2023-12-23T23:37:53.319Z,8.82
2023-12-23T23:43:15.494Z,8.84
2023-12-23T23:48:37.404Z,8.80
2023-12-23T23:53:59.227Z,8.91
2023-12-23T23:59:20.985Z,8.92
